Esperance, Australia
Current Conditions -  °F | °C
As of 6:00 PM on Thursday 27 Nov 2014 (Local Time) from YESP Reporting Station
Clear Clear  
Wind Chill: 73°   Ceiling: Unl
Heat Index: 73°   Visibility: 6mi
Dew Point: 61°   Wind: 10mph
Humidity: 65%   Direction: 90°E
Pressure: 29.88"   Gusts: NA
Location:  33.87°S, 121.89°E
Report Text: YESP 271000Z AUTO 09009KT 9999 // NCD 23/16 Q1012
Loading
Personal Weather Stations






























Interactive Weather Map New forecast layout! Learn more

10-Day Weather Forecast

Advertisements
Track Severe Weather on mobile